Time;durP1;ratioP1;P1;durP2;ratioP2;P2;SDS_P1;SDS_P2;PMS_P1;PMS_P2;Temp;Humidity;BMP_temperature;BMP_pressure;BME280_temperature;BME280_humidity;BME280_pressure;Samples;Min_cycle;Max_cycle;Signal;HPM_P1;HPM_P2
2022/05/06 00:02:22;;;;;;;13.70;6.10;;;5.20;99.90;;;3.78;91.01;101912.59;4924284;28;20038;-76
2022/05/06 00:04:49;;;;;;;18.63;8.77;;;5.20;99.90;;;3.79;91.82;101913.44;4904629;28;20707;-76
2022/05/06 00:07:15;;;;;;;18.23;8.32;;;5.20;99.90;;;3.81;93.06;101914.31;4940583;28;20031;-76
2022/05/06 00:09:46;;;;;;;24.00;9.15;;;5.20;99.90;;;3.82;94.09;101927.38;4946312;28;20046;-76
2022/05/06 00:12:13;;;;;;;22.23;8.20;;;5.20;99.90;;;3.83;94.90;101921.28;4956546;28;20151;-77
2022/05/06 00:14:40;;;;;;;19.90;9.23;;;5.20;99.90;;;3.86;95.55;101931.69;4955471;28;20466;-76
2022/05/06 00:17:06;;;;;;;20.63;8.82;;;5.20;99.90;;;3.89;96.41;101920.41;4953878;28;20027;-76
2022/05/06 00:19:32;;;;;;;23.27;9.88;;;5.30;99.90;;;3.96;97.31;101919.53;4924317;28;20037;-75
2022/05/06 00:22:01;;;;;;;24.92;12.00;;;5.30;99.90;;;4.03;98.36;101918.66;4920466;28;20509;-75
2022/05/06 00:24:28;;;;;;;19.05;9.55;;;5.40;99.90;;;4.08;99.12;101916.94;4915103;28;20785;-77
2022/05/06 00:26:56;;;;;;;21.45;10.27;;;5.40;99.90;;;4.13;99.62;101916.94;4914298;28;20039;-76
2022/05/06 00:29:22;;;;;;;21.75;10.77;;;5.50;99.90;;;4.17;99.71;101915.16;4951301;28;20037;-76
2022/05/06 00:31:47;;;;;;;23.83;10.45;;;5.50;99.90;;;4.20;99.53;101912.56;4922016;28;20039;-76
2022/05/06 00:34:19;;;;;;;20.52;10.32;;;5.50;99.90;;;4.22;99.78;101908.22;4910365;28;20101;-77
2022/05/06 00:36:44;;;;;;;23.23;9.75;;;5.50;99.90;;;4.23;100.00;101913.44;4910651;28;20132;-75
2022/05/06 00:39:10;;;;;;;36.22;11.80;;;5.60;99.90;;;4.26;99.97;101915.19;4935768;28;20120;-76
2022/05/06 00:41:36;;;;;;;23.80;11.63;;;5.60;99.90;;;4.24;100.00;101909.94;4921689;28;20938;-77
2022/05/06 00:44:10;;;;;;;15.55;9.38;;;5.60;99.90;;;4.24;100.00;101914.31;4934343;28;20113;-76
2022/05/06 00:46:37;;;;;;;26.17;10.73;;;5.60;99.90;;;4.22;100.00;101918.66;4953222;28;20049;-77
2022/05/06 00:49:12;;;;;;;19.60;9.07;;;5.60;99.90;;;4.21;100.00;101912.56;4978984;28;20089;-76
2022/05/06 00:51:39;;;;;;;23.83;9.65;;;5.50;99.90;;;4.20;100.00;101910.81;4909203;28;20118;-77
2022/05/06 00:54:06;;;;;;;22.58;10.32;;;5.50;99.90;;;4.21;100.00;101917.78;4908766;28;20463;-76
2022/05/06 00:56:32;;;;;;;26.73;10.40;;;5.50;99.90;;;4.23;100.00;101922.97;4949847;28;20037;-76
2022/05/06 00:58:58;;;;;;;17.95;9.93;;;5.60;99.90;;;4.24;100.00;101919.53;4953964;28;20054;-76
2022/05/06 01:01:24;;;;;;;21.67;9.52;;;5.60;99.90;;;4.23;100.00;101917.75;4946152;28;20046;-76
2022/05/06 01:03:54;;;;;;;18.83;9.50;;;5.50;99.90;;;4.24;100.00;101919.53;4939185;28;20122;-76
2022/05/06 01:06:21;;;;;;;20.05;9.95;;;5.60;99.90;;;4.22;100.00;101922.13;4909989;28;20040;-76
2022/05/06 01:08:47;;;;;;;18.58;9.50;;;5.60;99.90;;;4.20;100.00;101923.84;4937142;28;20030;-76
2022/05/06 01:11:14;;;;;;;17.63;9.45;;;5.50;99.90;;;4.19;100.00;101918.63;4935527;28;20064;-76
2022/05/06 01:13:54;;;;;;;20.95;10.82;;;5.50;99.90;;;4.16;100.00;101916.06;4899926;28;20052;-77
2022/05/06 01:16:19;;;;;;;24.65;10.88;;;5.50;99.90;;;4.08;100.00;101923.84;4962235;28;20062;-76
2022/05/06 01:18:50;;;;;;;12.75;8.38;;;5.40;99.90;;;4.02;100.00;101927.34;4938222;28;20117;-76
2022/05/06 01:21:25;;;;;;;20.73;9.55;;;5.40;99.90;;;3.99;99.98;101927.34;4904627;28;20118;-77
2022/05/06 01:23:51;;;;;;;22.42;9.27;;;5.30;99.90;;;3.97;99.78;101923.00;4937444;28;20021;-76
2022/05/06 01:26:17;;;;;;;16.35;8.15;;;5.30;99.90;;;3.97;100.00;101925.59;4986339;28;20504;-76
2022/05/06 01:28:44;;;;;;;21.90;10.00;;;5.30;99.90;;;3.98;100.00;101927.38;4909811;28;20148;-76
2022/05/06 01:31:22;;;;;;;25.33;10.50;;;5.40;99.90;;;4.04;100.00;101935.16;4909433;28;20027;-77
2022/05/06 01:33:54;;;;;;;19.08;9.27;;;5.40;99.90;;;4.08;100.00;101934.28;4943240;28;20080;-77
2022/05/06 01:36:27;;;;;;;17.65;8.13;;;5.40;99.90;;;4.10;100.00;101927.34;4920711;28;20042;-77
2022/05/06 01:38:59;;;;;;;16.38;9.23;;;5.50;99.90;;;4.10;100.00;101927.34;4935160;28;20027;-77
2022/05/06 01:41:31;;;;;;;16.33;8.00;;;5.40;99.90;;;4.08;100.00;101924.75;4942071;28;20109;-77
2022/05/06 01:44:03;;;;;;;16.83;9.23;;;5.40;99.90;;;4.05;100.00;101929.09;4926617;28;20098;-77
2022/05/06 01:46:37;;;;;;;17.30;10.07;;;5.40;99.90;;;4.04;100.00;101923.00;4919763;28;20037;-77
2022/05/06 01:49:04;;;;;;;18.52;9.60;;;5.40;99.90;;;4.02;100.00;101923.88;4907057;28;20096;-77
2022/05/06 01:51:32;;;;;;;16.80;8.98;;;5.40;99.90;;;3.99;100.00;101929.94;4974315;28;20117;-76
2022/05/06 01:54:03;;;;;;;17.73;9.35;;;5.30;99.90;;;3.99;100.00;101929.09;4963506;28;20041;-77
2022/05/06 01:56:29;;;;;;;21.40;10.48;;;5.30;99.90;;;3.98;100.00;101927.38;4951595;28;20050;-77
2022/05/06 01:58:54;;;;;;;18.50;10.20;;;5.30;99.90;;;3.96;100.00;101935.16;4915764;28;20108;-77
2022/05/06 02:01:20;;;;;;;32.38;11.93;;;5.30;99.90;;;3.95;100.00;101933.41;4928887;28;20596;-76
2022/05/06 02:06:32;;;;;;;19.88;10.32;;;5.30;99.90;;;3.96;100.00;101939.53;4969294;28;20041;-76
2022/05/06 02:08:58;;;;;;;24.15;11.57;;;5.30;99.90;;;3.96;100.00;101942.13;4934592;28;20084;-77
2022/05/06 02:11:24;;;;;;;29.00;10.55;;;5.30;99.90;;;3.98;100.00;101943.00;4945057;28;20068;-77
2022/05/06 02:13:50;;;;;;;24.00;10.45;;;5.30;99.90;;;3.98;100.00;101938.66;4930747;28;20501;-77
2022/05/06 02:16:16;;;;;;;21.42;10.90;;;5.30;99.90;;;3.99;100.00;101940.38;4923411;28;20039;-77
2022/05/06 02:18:42;;;;;;;21.92;11.07;;;5.30;99.90;;;4.00;100.00;101942.13;4900398;28;20121;-76
2022/05/06 02:21:10;;;;;;;27.42;11.20;;;5.30;99.90;;;4.00;100.00;101936.91;4958872;28;20062;-76
2022/05/06 02:23:38;;;;;;;24.17;11.35;;;5.30;99.90;;;3.99;100.00;101940.38;4869031;28;20521;-77
2022/05/06 02:26:04;;;;;;;35.55;12.50;;;5.30;99.90;;;3.97;100.00;101943.84;4923223;28;20106;-77
2022/05/06 02:28:30;;;;;;;28.27;12.60;;;5.30;99.90;;;3.95;100.00;101937.75;4966877;28;20490;-77
2022/05/06 02:33:39;;;;;;;25.98;12.07;;;5.30;99.90;;;3.88;100.00;101936.91;4965774;28;20063;-77
2022/05/06 02:36:10;;;;;;;29.55;12.18;;;5.20;99.90;;;3.85;100.00;101937.78;4934935;28;20534;-77
2022/05/06 02:38:37;;;;;;;28.83;11.40;;;5.20;99.90;;;3.80;100.00;101936.91;4949919;28;20047;-78
2022/05/06 02:41:03;;;;;;;29.38;11.70;;;5.20;99.90;;;3.77;100.00;101938.63;4918518;28;20033;-77
2022/05/06 02:43:29;;;;;;;21.58;11.15;;;5.10;99.90;;;3.74;100.00;101939.50;4942069;28;20487;-77
2022/05/06 02:45:54;;;;;;;23.15;11.20;;;5.10;99.90;;;3.68;100.00;101942.97;4950324;28;20644;-77
2022/05/06 02:48:26;;;;;;;32.47;12.40;;;5.10;99.90;;;3.63;100.00;101936.03;4926188;28;20066;-76
2022/05/06 02:50:52;;;;;;;26.27;12.40;;;5.00;99.90;;;3.57;100.00;101947.28;4971456;28;20119;-77
2022/05/06 02:53:21;;;;;;;29.33;12.43;;;5.00;99.90;;;3.53;100.00;101940.34;4936396;28;20435;-77
2022/05/06 02:55:47;;;;;;;23.48;11.40;;;4.90;99.90;;;3.51;100.00;101936.00;4898422;28;20034;-77
2022/05/06 02:58:17;;;;;;;24.83;12.95;;;4.90;99.90;;;3.48;100.00;101937.72;4934897;28;20138;-76
2022/05/06 03:00:43;;;;;;;27.00;13.02;;;4.90;99.90;;;3.46;100.00;101944.66;4907713;28;20405;-77
2022/05/06 03:03:08;;;;;;;34.58;13.30;;;4.90;99.90;;;3.46;100.00;101939.47;4926766;28;20026;-77
2022/05/06 03:05:34;;;;;;;29.85;13.80;;;4.90;99.90;;;3.49;100.00;101943.78;4908392;28;20153;-77
2022/05/06 03:08:00;;;;;;;26.58;13.30;;;4.90;99.90;;;3.52;100.00;101941.22;4926754;28;20762;-77
2022/05/06 03:10:25;;;;;;;32.95;13.68;;;4.90;99.90;;;3.56;100.00;101931.66;4920623;28;20152;-77
2022/05/06 03:12:55;;;;;;;32.00;13.98;;;4.90;99.90;;;3.59;100.00;101936.88;4922721;28;20153;-77
2022/05/06 03:15:21;;;;;;;36.67;13.95;;;4.90;99.90;;;3.64;100.00;101930.78;4902220;28;20033;-78
2022/05/06 03:17:50;;;;;;;28.92;13.50;;;5.00;99.90;;;3.70;100.00;101945.56;4884445;28;20039;-77
2022/05/06 03:20:15;;;;;;;30.95;13.85;;;5.00;99.90;;;3.73;100.00;101942.09;4904017;28;20046;-77
2022/05/06 03:22:46;;;;;;;27.83;13.77;;;5.00;99.90;;;3.76;100.00;101942.09;4920196;28;20133;-77
2022/05/06 03:25:17;;;;;;;27.02;13.25;;;5.10;99.90;;;3.78;100.00;101946.47;4934521;28;20049;-76
2022/05/06 03:28:03;;;;;;;25.88;12.75;;;5.00;99.90;;;3.75;100.00;101942.97;4909136;28;20069;-76
2022/05/06 03:30:39;;;;;;;26.90;10.27;;;5.10;99.90;;;3.70;100.00;101943.84;4896353;28;20053;-77
2022/05/06 03:33:11;;;;;;;19.85;10.52;;;5.00;99.90;;;3.70;100.00;101948.19;4918461;28;20065;-77
2022/05/06 03:35:40;;;;;;;19.95;10.25;;;5.00;99.90;;;3.70;100.00;101948.19;4918211;28;20052;-77
2022/05/06 03:38:07;;;;;;;23.23;11.05;;;5.00;99.90;;;3.73;100.00;101952.53;4939674;28;20050;-77
2022/05/06 03:40:33;;;;;;;22.08;11.27;;;5.00;99.90;;;3.77;100.00;101954.28;4878495;28;20649;-77
2022/05/06 03:43:02;;;;;;;22.95;11.50;;;5.10;99.90;;;3.81;100.00;101956.88;4897448;28;20038;-78
2022/05/06 03:45:30;;;;;;;27.10;12.50;;;5.10;99.90;;;3.87;100.00;101962.09;4912318;28;20080;-77
2022/05/06 03:47:58;;;;;;;23.25;11.05;;;5.20;99.90;;;3.97;100.00;101969.91;4948336;28;20100;-78
2022/05/06 03:53:18;;;;;;;24.42;11.07;;;5.30;99.90;;;4.10;100.00;101976.88;4935617;28;20092;-77
2022/05/06 03:55:44;;;;;;;24.45;11.30;;;5.40;99.90;;;4.19;100.00;101969.06;4948386;28;20057;-77
2022/05/06 03:58:10;;;;;;;25.88;11.73;;;5.40;99.90;;;4.30;100.00;101972.53;4879589;28;20031;-77
2022/05/06 04:00:35;;;;;;;30.13;13.52;;;5.50;99.90;;;4.46;100.00;101977.72;4919276;28;23520;-77
2022/05/06 04:03:07;;;;;;;29.05;12.82;;;5.60;99.90;;;4.52;100.00;101977.72;4917419;28;20079;-77
2022/05/06 04:05:34;;;;;;;23.63;12.00;;;5.80;99.90;;;4.82;100.00;101975.94;4912645;28;20022;-76
2022/05/06 04:08:00;;;;;;;32.40;13.05;;;6.20;99.90;;;5.30;100.00;101971.38;4897100;28;20195;-76
2022/05/06 04:10:27;;;;;;;29.67;12.05;;;6.70;99.90;;;5.91;100.00;101971.00;4945434;28;20039;-77
2022/05/06 04:13:02;;;;;;;22.13;11.60;;;7.30;99.90;;;6.64;100.00;101979.13;4948900;28;20194;-77
2022/05/06 04:15:28;;;;;;;22.13;11.73;;;8.00;99.90;;;7.50;96.46;101980.72;4934400;28;20046;-77
2022/05/06 04:17:54;;;;;;;23.95;11.18;;;8.70;99.90;;;8.35;91.69;101985.50;4928583;28;20833;-77
2022/05/06 04:25:49;;;;;;;18.27;9.80;;;11.00;99.90;;;11.02;75.72;102002.34;4942916;28;20181;-77
2022/05/06 04:28:16;;;;;;;14.30;8.88;;;11.50;99.90;;;11.60;71.84;102005.06;4913763;28;20057;-77
2022/05/06 04:30:41;;;;;;;17.25;9.57;;;12.10;99.90;;;12.31;69.76;102002.84;4946812;28;20039;-77
2022/05/06 04:33:07;;;;;;;21.58;9.55;;;12.70;99.90;;;13.17;66.98;102013.00;4924141;28;20149;-77
2022/05/06 04:35:34;;;;;;;14.30;8.23;;;13.40;99.90;;;14.15;63.54;102014.53;4942989;28;20038;-77
2022/05/06 04:38:03;;;;;;;15.15;8.40;;;14.10;99.90;;;14.97;60.94;102017.22;4934258;28;20038;-77
2022/05/06 04:40:29;;;;;;;13.13;8.25;;;14.80;99.90;;;15.64;58.57;102028.34;4933120;28;20039;-77
2022/05/06 04:42:54;;;;;;;15.90;8.93;;;15.30;99.90;;;16.27;57.10;102032.44;4944255;28;20041;-77
2022/05/06 04:45:20;;;;;;;16.50;8.82;;;15.70;99.90;;;16.66;55.61;102042.84;4944988;28;20034;-77
2022/05/06 04:47:46;;;;;;;18.75;8.23;;;15.90;99.90;;;16.35;55.66;102049.72;4919935;28;20038;-77
2022/05/06 04:50:11;;;;;;;19.40;8.43;;;16.00;99.90;;;16.10;55.73;102046.56;4925603;28;20094;-77
2022/05/06 04:52:42;;;;;;;19.35;8.70;;;15.60;99.90;;;15.38;57.68;102056.97;4920179;28;20034;-77
2022/05/06 04:55:08;;;;;;;17.10;8.63;;;15.70;99.90;;;15.83;56.38;102046.06;4906770;28;20041;-77
2022/05/06 04:57:34;;;;;;;19.60;8.70;;;15.50;99.90;;;15.26;57.51;102057.50;4932961;28;20440;-76
2022/05/06 05:00:00;;;;;;;23.77;8.75;;;15.50;99.90;;;16.31;56.39;102064.09;4933808;28;20043;-77
2022/05/06 05:02:27;;;;;;;14.73;8.70;;;16.00;99.90;;;17.69;53.53;102079.13;4956365;28;20038;-77
2022/05/06 05:04:58;;;;;;;15.65;8.35;;;16.90;99.90;;;19.57;49.45;102074.34;4925791;28;20119;-78
2022/05/06 05:07:25;;;;;;;18.15;8.90;;;17.80;99.90;;;20.67;47.25;102077.84;4956253;28;20518;-77
2022/05/06 05:09:50;;;;;;;14.30;8.98;;;18.90;99.90;;;21.92;44.80;102085.16;4930354;28;20498;-77
2022/05/06 05:12:16;;;;;;;17.63;8.95;;;19.60;99.90;;;21.97;43.72;102082.16;4928383;28;20064;-77
2022/05/06 05:14:42;;;;;;;16.27;8.73;;;20.20;99.90;;;22.60;42.99;102089.06;4935236;28;20080;-76
2022/05/06 05:17:09;;;;;;;17.35;8.90;;;20.80;99.90;;;23.70;41.10;102100.22;4977776;28;20034;-77
2022/05/06 05:19:36;;;;;;;22.63;8.85;;;21.50;99.50;;;24.72;39.64;102107.03;4961583;28;20510;-77
2022/05/06 05:22:02;;;;;;;13.60;8.77;;;22.20;98.60;;;25.57;38.02;102122.19;4901183;28;20034;-77
2022/05/06 05:24:27;;;;;;;16.02;8.75;;;22.80;96.90;;;26.11;37.08;102120.09;4955846;28;20030;-77
2022/05/06 05:26:57;;;;;;;21.90;10.27;;;23.40;96.40;;;26.79;36.17;102124.66;4923117;28;20031;-77
2022/05/06 05:29:23;;;;;;;19.15;9.70;;;24.00;95.50;;;27.36;35.20;102138.22;4950919;28;20022;-76
2022/05/06 05:31:55;;;;;;;17.65;9.70;;;24.50;94.70;;;27.63;34.71;102139.28;4945788;28;20023;-77
2022/05/06 05:34:21;;;;;;;19.95;10.30;;;24.30;93.90;;;24.73;38.23;102133.00;4953035;28;20038;-76
2022/05/06 05:36:47;;;;;;;19.25;11.27;;;23.60;94.20;;;24.54;39.25;102130.16;4964665;28;20456;-76
2022/05/06 05:39:12;;;;;;;20.38;11.90;;;23.30;94.80;;;24.58;39.20;102128.91;4967433;28;20030;-77
2022/05/06 05:41:38;;;;;;;;;;;23.20;95.00;;;26.38;37.51;102146.38;4935397;28;20022;-77
2022/05/06 05:49:35;;;;;;;;;;;25.00;94.40;;;30.49;31.91;102161.41;4975767;28;20544;-77
2022/05/06 05:52:01;;;;;;;20.55;12.57;;;26.80;92.90;;;31.05;31.09;102166.00;4934872;28;19926;-75
2022/05/06 05:54:28;;;;;;;;;;;26.80;92.60;;;31.53;30.69;102173.41;4961737;28;20023;-78
2022/05/06 05:56:57;;;;;;;26.75;15.98;;;27.90;91.10;;;31.88;30.05;102175.66;4956094;28;19913;-78
2022/05/06 05:59:24;;;;;;;26.40;15.30;;;28.30;90.50;;;31.94;29.67;102184.13;4941263;28;20053;-76
2022/05/06 06:01:49;;;;;;;27.73;15.18;;;28.50;89.80;;;31.43;30.37;102181.78;4955442;28;20049;-78
2022/05/06 06:04:16;;;;;;;28.70;15.35;;;28.80;89.20;;;32.25;29.43;102187.75;4921299;28;20113;-79
2022/05/06 06:06:42;;;;;;;24.60;14.88;;;29.00;86.10;;;32.32;29.37;102196.06;4866619;28;20031;-79
2022/05/06 06:09:09;;;;;;;29.17;15.90;;;29.20;84.60;;;32.44;29.38;102204.66;4954008;28;20030;-77
2022/05/06 06:11:35;;;;;;;27.02;15.20;;;28.90;83.20;;;31.63;29.65;102210.31;4945043;28;20064;-76
2022/05/06 06:14:02;;;;;;;26.92;15.40;;;28.30;83.40;;;30.21;31.33;102210.56;4949453;28;20046;-76
2022/05/06 06:16:28;;;;;;;27.40;15.80;;;27.40;84.80;;;28.96;32.81;102204.56;4941558;28;20038;-76
2022/05/06 06:18:58;;;;;;;29.13;16.05;;;26.50;87.10;;;27.93;34.41;102203.13;4940664;28;20138;-76
2022/05/06 06:21:30;;;;;;;24.65;15.73;;;25.60;88.40;;;26.56;36.42;102205.97;4937147;28;20030;-76
2022/05/06 06:23:55;;;;;;;30.45;16.50;;;24.70;90.40;;;25.27;38.38;102205.72;4956577;28;20425;-76
2022/05/06 06:26:21;;;;;;;26.33;16.10;;;24.10;91.20;;;25.09;38.84;102200.88;4952213;28;20026;-76
2022/05/06 06:28:47;;;;;;;;;;;24.00;91.80;;;22.94;41.40;102196.59;4952029;28;20465;-76
2022/05/06 06:31:12;;;;;;;28.15;15.48;;;22.60;93.20;;;23.11;43.23;102198.88;4950237;28;20393;-76
2022/05/06 06:33:38;;;;;;;32.05;15.88;;;22.20;94.10;;;23.02;43.16;102201.41;4924091;28;20089;-76
2022/05/06 06:36:05;;;;;;;27.30;16.08;;;21.50;94.30;;;21.14;45.79;102205.88;4958546;28;20590;-75
2022/05/06 06:38:34;;;;;;;27.08;16.70;;;21.10;95.20;;;22.28;44.70;102196.13;4953870;28;20045;-75
2022/05/06 06:41:00;;;;;;;28.67;16.65;;;20.60;95.60;;;21.10;47.71;102184.69;4936129;28;20522;-75
2022/05/06 06:43:26;;;;;;;30.67;16.80;;;20.70;96.30;;;22.30;45.31;102188.81;4945275;28;20027;-76
2022/05/06 06:45:54;;;;;;;26.42;14.32;;;21.20;95.50;;;22.99;43.36;102188.19;4932345;28;21389;-76
2022/05/06 06:48:19;;;;;;;27.65;15.32;;;21.80;94.70;;;23.84;41.40;102190.56;4973648;28;20034;-76
2022/05/06 06:50:45;;;;;;;23.08;11.95;;;22.30;93.40;;;24.09;40.20;102197.53;4947166;28;20597;-76
2022/05/06 06:53:11;;;;;;;;;;;22.40;94.00;;;25.15;38.86;102189.59;4957847;28;20046;-76
2022/05/06 06:55:36;;;;;;;21.13;12.18;;;23.60;92.90;;;25.40;38.18;102192.91;4979889;28;21439;-75
2022/05/06 06:58:02;;;;;;;19.45;11.27;;;24.00;91.40;;;25.71;37.37;102209.09;4939982;28;20044;-76
2022/05/06 07:00:28;;;;;;;22.52;12.35;;;24.60;91.30;;;26.13;37.22;102206.31;4956118;28;20037;-76
2022/05/06 07:02:56;;;;;;;21.70;12.57;;;24.80;90.20;;;25.83;37.29;102218.81;4968565;28;20121;-76
2022/05/06 07:05:23;;;;;;;19.85;12.18;;;25.40;89.90;;;27.07;35.44;102219.38;4959023;28;20053;-76
2022/05/06 07:13:20;;;;;;;17.58;10.93;;;25.70;85.90;;;26.35;35.53;102233.09;4954895;28;21528;-76
2022/05/06 07:15:46;;;;;;;19.63;10.30;;;25.50;85.90;;;25.76;36.44;102231.97;4988369;28;20035;-76
2022/05/06 07:18:12;;;;;;;18.13;9.38;;;25.50;86.50;;;25.90;36.12;102236.22;4975635;28;20075;-76
2022/05/06 07:20:37;;;;;;;17.63;8.68;;;25.70;85.80;;;26.20;35.66;102234.47;4937721;28;20518;-76
2022/05/06 07:23:04;;;;;;;15.95;9.52;;;26.50;86.50;;;27.40;34.24;102231.59;4933931;28;20061;-76
2022/05/06 07:25:30;;;;;;;14.65;7.57;;;27.00;81.80;;;27.32;33.54;102236.88;4976940;28;20031;-76
2022/05/06 07:27:56;;;;;;;15.77;7.78;;;26.50;80.80;;;25.90;34.88;102247.00;4968860;28;20035;-76
2022/05/06 07:30:22;;;;;;;15.13;8.02;;;26.00;82.40;;;25.54;35.23;102246.47;4946570;28;20019;-76
2022/05/06 07:32:48;;;;;;;11.68;6.97;;;25.70;83.10;;;25.31;35.02;102244.91;4943537;28;20530;-76
2022/05/06 07:35:14;;;;;;;16.38;7.25;;;26.00;85.00;;;26.37;34.96;102247.31;4941174;28;20042;-76
2022/05/06 07:37:41;;;;;;;14.15;7.30;;;26.90;83.80;;;27.69;32.66;102249.59;4953139;28;20023;-76
2022/05/06 07:40:10;;;;;;;12.63;6.60;;;27.30;79.30;;;27.42;32.11;102251.22;4931320;28;20046;-74
2022/05/06 07:42:37;;;;;;;11.07;6.88;;;27.30;79.40;;;27.27;32.58;102261.63;4950762;28;20037;-74
2022/05/06 07:45:04;;;;;;;11.65;7.45;;;27.50;80.90;;;27.55;33.08;102268.00;4973459;28;20070;-74
2022/05/06 07:47:31;;;;;;;10.38;7.25;;;28.00;80.10;;;28.23;32.69;102273.22;4938859;28;20034;-74
2022/05/06 07:49:57;;;;;;;16.17;7.38;;;28.70;80.90;;;29.07;31.08;102265.78;4956886;28;20058;-74
2022/05/06 07:52:23;;;;;;;13.75;6.70;;;28.60;76.30;;;28.10;31.50;102271.84;4946577;28;20053;-74
2022/05/06 07:54:49;;;;;;;10.80;5.97;;;28.80;79.10;;;28.82;31.29;102272.88;4924504;28;20497;-74
2022/05/06 07:57:14;;;;;;;8.10;5.40;;;28.80;75.20;;;28.33;31.17;102273.13;4951289;28;20056;-74
2022/05/06 07:59:40;;;;;;;9.13;5.10;;;28.30;76.00;;;27.48;32.34;102283.13;4942906;28;20030;-75
2022/05/06 08:04:51;;;;;;;10.82;4.90;;;27.00;76.40;;;25.67;33.77;102281.34;4937027;28;20034;-74
2022/05/06 08:07:17;;;;;;;10.07;4.93;;;26.60;78.50;;;25.75;34.57;102269.91;4965210;28;20090;-74
2022/05/06 08:09:43;;;;;;;8.23;5.03;;;26.50;78.30;;;26.22;33.86;102273.00;4963864;28;20026;-74
2022/05/06 08:12:10;;;;;;;12.10;4.97;;;26.00;78.20;;;25.19;35.18;102273.75;4922947;28;20058;-74
2022/05/06 08:14:36;;;;;;;8.48;4.82;;;25.80;78.70;;;25.11;34.70;102266.28;4967720;28;20101;-73
2022/05/06 08:17:02;;;;;;;12.70;5.00;;;25.80;81.20;;;25.43;34.99;102267.28;4952600;28;20066;-74
2022/05/06 08:19:28;;;;;;;7.88;4.70;;;25.70;81.20;;;25.35;35.08;102268.78;4963795;28;20082;-74
2022/05/06 08:21:55;;;;;;;10.95;4.95;;;25.60;81.20;;;25.15;35.36;102267.75;4950755;28;20057;-74
2022/05/06 08:24:23;;;;;;;12.02;4.10;;;25.50;82.30;;;24.91;35.74;102267.13;4944096;28;20034;-74
2022/05/06 08:26:49;;;;;;;9.75;4.47;;;25.10;79.70;;;24.24;36.48;102268.09;4941816;28;20487;-74
2022/05/06 08:29:15;;;;;;;7.60;3.90;;;24.80;82.60;;;24.09;37.26;102256.72;5000569;28;20556;-76
2022/05/06 08:31:41;;;;;;;7.10;4.03;;;24.60;82.30;;;24.00;37.44;102257.47;4959636;28;20029;-76
2022/05/06 08:34:11;;;;;;;11.13;3.38;;;24.40;83.10;;;24.01;37.81;102248.41;4948978;28;20360;-76
2022/05/06 08:36:40;;;;;;;6.63;2.70;;;23.90;81.10;;;23.14;37.97;102255.06;4921977;28;20042;-76
2022/05/06 08:39:07;;;;;;;6.20;2.83;;;23.30;82.90;;;22.34;39.20;102249.34;4906727;28;20518;-76
2022/05/06 08:41:36;;;;;;;5.55;2.60;;;23.10;85.30;;;21.92;39.77;102243.38;4944119;28;20526;-75
2022/05/06 08:52:36;;;;;;;6.40;2.92;;;21.00;90.80;;;20.22;44.28;102235.03;4968037;28;20049;-76
2022/05/06 08:55:05;;;;;;;6.13;3.00;;;21.10;90.30;;;20.51;43.58;102231.44;4928938;28;20111;-76
2022/05/06 08:57:31;;;;;;;4.18;2.08;;;20.90;89.80;;;19.60;44.23;102221.94;4952155;28;20105;-75
2022/05/06 08:59:57;;;;;;;4.60;2.30;;;20.60;90.70;;;19.46;45.54;102216.59;4976933;28;20118;-76
2022/05/06 09:02:23;;;;;;;5.13;2.15;;;20.50;91.70;;;19.58;46.49;102209.63;4936390;28;20101;-76
2022/05/06 09:04:49;;;;;;;;;;;20.60;92.10;;;19.26;45.84;102209.75;4947790;28;20034;-76
2022/05/06 09:07:21;;;;;;;3.85;1.70;;;20.10;91.80;;;19.01;47.64;102208.53;4937723;28;19918;-75
2022/05/06 09:10:17;;;;;;;4.65;1.92;;;20.00;92.30;;;18.93;46.72;102205.47;4953051;28;20093;-76
2022/05/06 09:12:51;;;;;;;6.37;2.27;;;19.70;91.50;;;18.51;47.10;102195.41;4950751;28;20038;-76
2022/05/06 09:18:05;;;;;;;4.45;2.38;;;19.70;92.80;;;18.93;48.18;102197.44;4932422;28;20528;-76
2022/05/06 09:20:31;;;;;;;8.43;2.22;;;19.70;92.60;;;18.98;47.92;102187.34;4956763;28;20035;-75
2022/05/06 09:22:57;;;;;;;4.63;1.73;;;19.50;93.30;;;18.64;48.80;102185.78;4957101;28;20505;-76
2022/05/06 09:25:42;;;;;;;3.08;1.55;;;19.70;92.60;;;18.78;47.74;102179.66;4952193;28;20530;-76
2022/05/06 09:28:27;;;;;;;2.83;1.95;;;19.90;92.80;;;19.14;46.92;102178.47;4954239;28;20060;-76
2022/05/06 09:31:11;;;;;;;5.75;1.73;;;19.90;92.20;;;19.22;47.19;102181.50;4950321;28;20034;-76
2022/05/06 09:33:46;;;;;;;4.47;1.80;;;20.00;93.30;;;19.18;47.65;102178.19;4971005;28;20034;-76
2022/05/06 09:36:30;;;;;;;4.22;1.48;;;20.00;92.40;;;19.36;46.98;102172.69;4928654;28;20623;-76
2022/05/06 09:39:14;;;;;;;3.28;1.40;;;20.10;92.80;;;19.57;47.48;102171.38;4901126;28;20525;-76
2022/05/06 09:41:41;;;;;;;3.85;1.42;;;20.30;92.50;;;19.59;46.19;102172.13;4928309;28;20027;-76
2022/05/06 09:44:10;;;;;;;2.20;1.20;;;20.40;93.10;;;19.95;47.05;102168.13;4920582;28;20026;-76
2022/05/06 09:46:37;;;;;;;3.40;1.50;;;20.50;93.40;;;19.97;47.55;102168.03;4925352;28;20026;-76
2022/05/06 09:49:07;;;;;;;2.03;1.27;;;20.50;93.40;;;19.83;47.79;102172.44;4972248;28;20050;-76
2022/05/06 09:51:36;;;;;;;3.83;1.40;;;20.50;93.00;;;19.95;46.93;102175.28;4959708;28;20122;-76
2022/05/06 09:54:08;;;;;;;6.57;1.05;;;20.70;91.50;;;20.26;45.11;102168.84;4933320;28;20026;-76
2022/05/06 09:56:40;;;;;;;3.25;1.55;;;20.90;91.20;;;20.43;44.58;102171.28;4952667;28;20650;-76
2022/05/06 09:59:06;;;;;;;2.25;1.42;;;21.00;91.50;;;20.51;44.52;102170.75;4950130;28;20043;-76
2022/05/06 10:01:33;;;;;;;2.20;1.35;;;21.10;92.80;;;20.78;45.47;102167.28;4952625;23;20076;-76
2022/05/06 10:04:01;;;;;;;4.50;1.50;;;21.50;92.10;;;21.34;43.96;102167.00;4975620;28;20092;-76
2022/05/06 10:06:29;;;;;;;5.32;1.38;;;21.80;91.00;;;21.55;42.58;102159.34;4975900;28;20070;-76
2022/05/06 10:09:00;;;;;;;3.78;1.35;;;22.10;90.30;;;21.72;42.08;102161.66;4960079;28;20038;-75
2022/05/06 10:11:28;;;;;;;7.50;1.30;;;22.20;90.50;;;21.74;41.81;102157.06;4973389;23;20025;-77
2022/05/06 10:13:59;;;;;;;6.00;1.40;;;22.10;90.00;;;21.41;42.35;102155.81;4942765;28;20031;-76
2022/05/06 10:16:43;;;;;;;3.25;1.23;;;22.20;90.20;;;21.75;41.90;102160.59;4955528;28;20224;-76
2022/05/06 10:19:37;;;;;;;2.38;1.20;;;22.30;89.30;;;21.76;41.49;102157.81;4976325;28;20054;-76
2022/05/06 10:22:06;;;;;;;3.00;1.20;;;22.10;89.70;;;21.42;42.48;102153.97;4938271;28;20052;-76
2022/05/06 10:24:49;;;;;;;3.97;1.33;;;21.90;87.40;;;20.99;42.09;102162.25;4977580;28;20037;-76
2022/05/06 10:33:16;;;;;;;2.28;0.98;;;22.10;89.40;;;21.57;42.41;102160.94;4963915;28;20054;-76
2022/05/06 10:35:52;;;;;;;4.75;0.93;;;22.10;89.20;;;21.49;41.69;102153.44;4977247;28;20034;-76
2022/05/06 10:38:25;;;;;;;2.67;0.93;;;21.80;87.90;;;20.85;42.23;102160.53;4984643;28;20034;-76
2022/05/06 10:40:58;;;;;;;2.13;0.82;;;21.40;87.00;;;20.52;42.25;102160.91;4967829;28;20037;-76
2022/05/06 10:43:42;;;;;;;2.70;1.13;;;21.10;89.00;;;20.10;42.84;102155.59;4976744;28;20413;-77
2022/05/06 10:46:11;;;;;;;2.35;1.08;;;20.80;90.00;;;19.96;43.83;102153.81;4973749;28;20466;-76
2022/05/06 10:48:40;;;;;;;3.08;1.00;;;20.80;91.20;;;20.04;45.12;102142.63;4962822;28;20054;-76
2022/05/06 10:51:27;;;;;;;1.90;1.10;;;20.50;91.00;;;19.59;45.14;102132.06;4945140;28;21609;-75
2022/05/06 10:53:56;;;;;;;1.92;1.10;;;20.60;91.20;;;19.92;45.17;102135.41;4955075;28;20031;-76
2022/05/06 10:56:22;;;;;;;2.97;1.10;;;20.60;92.40;;;19.93;45.85;102135.28;4959213;28;20430;-76
2022/05/06 10:58:58;;;;;;;6.93;1.20;;;20.80;91.60;;;20.47;44.23;102124.66;4923567;28;20027;-76
2022/05/06 11:01:30;;;;;;;3.00;1.00;;;21.00;90.80;;;20.87;43.59;102127.34;4944589;28;20046;-76